createdAt,value
2023-01-02T00:01:31.497Z,101027.19
2023-01-02T00:03:58.876Z,101013.28
2023-01-02T00:06:26.484Z,101005.53
2023-01-02T00:08:53.680Z,101006.69
2023-01-02T00:11:20.817Z,100999.97
2023-01-02T00:13:47.969Z,100995.13
2023-01-02T00:16:15.122Z,100995.38
2023-01-02T00:18:42.321Z,100993.81
2023-01-02T00:21:09.491Z,100978.78
2023-01-02T00:23:36.857Z,100970.22
2023-01-02T00:26:04.389Z,100975.56
2023-01-02T00:28:31.835Z,100972.31
2023-01-02T00:31:04.929Z,100966.72
2023-01-02T00:33:32.370Z,100954.47
2023-01-02T00:36:02.943Z,100958.72
2023-01-02T00:38:30.041Z,100952.06
2023-01-02T00:40:57.173Z,100963.53
2023-01-02T00:43:24.374Z,100952.72
2023-01-02T00:45:51.553Z,100955.09
2023-01-02T00:48:18.704Z,100963.56
2023-01-02T00:50:46.058Z,100956.47
2023-01-02T00:53:13.151Z,100957.03
2023-01-02T00:55:40.262Z,100958.59
2023-01-02T00:58:07.419Z,100957.97
2023-01-02T01:00:34.581Z,100963.47
2023-01-02T01:03:02.088Z,100968.25
2023-01-02T01:05:29.688Z,100959.97
2023-01-02T01:07:58.069Z,100953.06
2023-01-02T01:10:26.806Z,100949.00
2023-01-02T01:12:54.053Z,100946.16
2023-01-02T01:15:21.343Z,100950.50
2023-01-02T01:17:48.459Z,100953.38
2023-01-02T01:20:15.628Z,100948.13
2023-01-02T01:22:42.817Z,100947.81
2023-01-02T01:25:10.269Z,100946.94
2023-01-02T01:27:37.606Z,100938.34
2023-01-02T01:30:07.109Z,100935.00
2023-01-02T01:32:34.914Z,100935.00
2023-01-02T01:35:02.194Z,100938.34
2023-01-02T01:37:29.417Z,100933.59
2023-01-02T01:39:57.063Z,100922.44
2023-01-02T01:42:24.810Z,100907.28
2023-01-02T01:44:55.050Z,100906.59
2023-01-02T01:47:40.175Z,100903.56
2023-01-02T01:50:27.648Z,100896.06
2023-01-02T01:53:08.217Z,100901.06
2023-01-02T01:55:42.136Z,100909.69
2023-01-02T01:58:15.168Z,100904.53
2023-01-02T02:00:43.641Z,100901.22
2023-01-02T02:03:21.820Z,100896.84
2023-01-02T02:05:49.363Z,100899.69
2023-01-02T02:08:36.552Z,100888.94
2023-01-02T02:11:06.079Z,100886.63
2023-01-02T02:13:34.170Z,100882.22
2023-01-02T02:16:16.309Z,100876.63
2023-01-02T02:19:55.671Z,100866.53
2023-01-02T02:23:38.080Z,100847.66
2023-01-02T02:27:15.985Z,100857.13
2023-01-02T02:30:12.013Z,100850.97
2023-01-02T02:32:53.394Z,100843.31
2023-01-02T02:36:04.156Z,100836.13
2023-01-02T02:38:50.798Z,100820.88
2023-01-02T02:41:45.988Z,100816.28
2023-01-02T02:44:35.854Z,100810.94
2023-01-02T02:47:16.104Z,100812.94
2023-01-02T02:49:56.940Z,100801.53
2023-01-02T02:52:35.080Z,100807.75
2023-01-02T02:55:11.918Z,100797.25
2023-01-02T02:57:42.578Z,100803.09
2023-01-02T03:00:17.113Z,100807.75
2023-01-02T03:02:44.411Z,100813.50
2023-01-02T03:05:31.340Z,100800.66
2023-01-02T03:08:24.013Z,100785.84
2023-01-02T03:11:01.299Z,100791.00
2023-01-02T03:14:07.592Z,100788.28
2023-01-02T03:16:42.159Z,100779.44
2023-01-02T03:19:32.048Z,100783.06
2023-01-02T03:22:21.643Z,100766.78
2023-01-02T03:24:55.333Z,100773.72
2023-01-02T03:27:30.193Z,100771.00
2023-01-02T03:30:22.420Z,100777.56
2023-01-02T03:33:19.804Z,100765.22
2023-01-02T03:35:54.281Z,100764.84
2023-01-02T03:38:52.644Z,100770.59
2023-01-02T03:41:36.017Z,100775.09
2023-01-02T03:44:07.663Z,100766.88
2023-01-02T03:47:04.013Z,100761.28
2023-01-02T03:49:37.332Z,100760.94
2023-01-02T03:52:04.905Z,100756.41
2023-01-02T03:54:32.376Z,100755.31
2023-01-02T03:57:28.547Z,100756.03
2023-01-02T04:00:17.277Z,100752.31
2023-01-02T04:03:22.487Z,100748.84
2023-01-02T04:06:09.417Z,100751.47
2023-01-02T04:09:12.119Z,100749.41
2023-01-02T04:11:46.722Z,100754.06
2023-01-02T04:14:32.630Z,100748.47
2023-01-02T04:17:02.181Z,100748.56
2023-01-02T04:19:56.860Z,100744.41
2023-01-02T04:22:41.910Z,100737.50
2023-01-02T04:25:18.510Z,100724.41
2023-01-02T04:27:57.598Z,100743.56
2023-01-02T04:30:27.060Z,100747.38
2023-01-02T04:32:56.713Z,100739.53
2023-01-02T04:35:25.040Z,100738.56
2023-01-02T04:37:52.285Z,100729.28
2023-01-02T04:40:30.577Z,100728.75
2023-01-02T04:42:58.339Z,100727.69
2023-01-02T04:45:25.465Z,100731.97
2023-01-02T04:47:52.544Z,100733.28
2023-01-02T04:50:19.896Z,100728.03
2023-01-02T04:52:46.944Z,100731.47
2023-01-02T04:55:14.223Z,100729.41
2023-01-02T04:57:41.383Z,100722.84
2023-01-02T05:00:10.044Z,100721.19
2023-01-02T05:02:39.464Z,100720.41
2023-01-02T05:05:09.231Z,100722.59
2023-01-02T05:07:39.641Z,100723.69
2023-01-02T05:10:08.277Z,100715.44
2023-01-02T05:12:37.558Z,100718.06
2023-01-02T05:15:08.376Z,100718.19
2023-01-02T05:17:42.257Z,100717.66
2023-01-02T05:20:13.350Z,100711.84
2023-01-02T05:23:02.795Z,100724.47
2023-01-02T05:25:35.660Z,100728.22
2023-01-02T05:28:04.504Z,100720.75
2023-01-02T05:30:31.707Z,100727.38
2023-01-02T05:32:58.847Z,100714.97
2023-01-02T05:35:32.092Z,100724.91
2023-01-02T05:37:59.943Z,100721.19
2023-01-02T05:40:27.079Z,100717.47
2023-01-02T05:42:58.169Z,100710.25
2023-01-02T05:45:27.005Z,100696.75
2023-01-02T05:47:54.217Z,100710.13
2023-01-02T05:50:21.320Z,100706.34
2023-01-02T05:52:48.374Z,100711.84
2023-01-02T05:55:15.637Z,100715.16
2023-01-02T05:57:42.831Z,100701.44
2023-01-02T06:00:11.291Z,100705.56
2023-01-02T06:02:38.438Z,100714.44
2023-01-02T06:05:06.545Z,100706.28
2023-01-02T06:07:33.870Z,100710.69
2023-01-02T06:10:00.914Z,100706.72
2023-01-02T06:12:27.957Z,100709.59
2023-01-02T06:14:54.985Z,100708.66
2023-01-02T06:17:22.582Z,100714.44
2023-01-02T06:19:53.938Z,100710.13
2023-01-02T06:22:21.422Z,100716.88
2023-01-02T06:24:48.533Z,100721.31
2023-01-02T06:27:15.622Z,100715.88
2023-01-02T06:29:42.658Z,100714.66
2023-01-02T06:32:09.677Z,100719.66
2023-01-02T06:34:36.681Z,100707.75
2023-01-02T06:37:09.544Z,100717.16
2023-01-02T06:39:37.758Z,100709.19
2023-01-02T06:42:07.214Z,100708.91
2023-01-02T06:44:34.678Z,100713.31
2023-01-02T06:47:01.684Z,100717.22
2023-01-02T06:49:28.813Z,100713.06
2023-01-02T06:51:55.806Z,100715.81
2023-01-02T06:54:22.856Z,100715.56
2023-01-02T06:56:49.836Z,100718.75
2023-01-02T06:59:17.103Z,100717.69
2023-01-02T07:01:44.399Z,100720.72
2023-01-02T07:04:16.904Z,100721.31
2023-01-02T07:06:44.061Z,100724.06
2023-01-02T07:09:11.228Z,100714.53
2023-01-02T07:11:39.402Z,100723.69
2023-01-02T07:14:08.982Z,100715.66
2023-01-02T07:16:36.170Z,100712.34
2023-01-02T07:19:03.316Z,100720.91
2023-01-02T07:21:31.209Z,100724.25
2023-01-02T07:23:58.330Z,100734.09
2023-01-02T07:26:25.328Z,100728.91
2023-01-02T07:28:52.449Z,100733.44
2023-01-02T07:31:21.172Z,100738.41
2023-01-02T07:33:49.478Z,100740.50
2023-01-02T07:36:22.530Z,100733.00
2023-01-02T07:38:57.551Z,100741.13
2023-01-02T07:41:26.229Z,100731.03
2023-01-02T07:43:58.339Z,100742.44
2023-01-02T07:46:25.965Z,100748.38
2023-01-02T07:48:53.373Z,100749.06
2023-01-02T07:51:26.602Z,100754.84
2023-01-02T07:53:55.272Z,100753.88
2023-01-02T07:56:22.474Z,100742.69
2023-01-02T07:58:50.393Z,100738.00
2023-01-02T08:01:20.849Z,100738.84
2023-01-02T08:03:48.526Z,100750.72
2023-01-02T08:06:18.044Z,100754.91
2023-01-02T08:08:45.682Z,100758.25
2023-01-02T08:11:21.126Z,100751.91
2023-01-02T08:13:49.272Z,100763.16
2023-01-02T08:16:20.463Z,100758.84
2023-01-02T08:18:53.803Z,100753.84
2023-01-02T08:21:22.417Z,100750.00
2023-01-02T08:23:49.570Z,100757.22
2023-01-02T08:26:17.079Z,100750.03
2023-01-02T08:28:44.726Z,100752.72
2023-01-02T08:31:20.549Z,100749.66
2023-01-02T08:33:47.872Z,100749.78
2023-01-02T08:36:15.033Z,100757.28
2023-01-02T08:38:43.026Z,100764.47
2023-01-02T08:41:10.292Z,100759.22
2023-01-02T08:43:38.347Z,100762.03
2023-01-02T08:46:08.435Z,100759.78
2023-01-02T08:48:36.744Z,100751.50
2023-01-02T08:51:05.602Z,100755.09
2023-01-02T08:53:32.714Z,100757.19
2023-01-02T08:56:29.349Z,100759.53
2023-01-02T08:59:10.003Z,100757.47
2023-01-02T09:01:38.536Z,100765.75
2023-01-02T09:04:11.994Z,100765.38
2023-01-02T09:06:42.405Z,100763.84
2023-01-02T09:09:13.112Z,100763.56
2023-01-02T09:11:50.290Z,100762.59
2023-01-02T09:14:20.916Z,100761.38
2023-01-02T09:16:49.842Z,100773.28
2023-01-02T09:19:17.565Z,100766.38
2023-01-02T09:21:44.904Z,100766.50
2023-01-02T09:24:13.250Z,100768.19
2023-01-02T09:26:41.834Z,100768.72
2023-01-02T09:29:11.829Z,100765.94
2023-01-02T09:31:40.559Z,100764.13
2023-01-02T09:36:35.565Z,100772.19
2023-01-02T09:39:04.328Z,100772.59
2023-01-02T09:42:00.129Z,100780.47
2023-01-02T09:44:44.513Z,100773.28
2023-01-02T09:47:11.354Z,100778.69
2023-01-02T09:50:00.680Z,100764.69
2023-01-02T09:52:45.720Z,100756.34
2023-01-02T09:55:43.289Z,100745.69
2023-01-02T09:58:41.265Z,100746.53
2023-01-02T10:01:22.256Z,100732.63
2023-01-02T10:04:26.124Z,100727.09
2023-01-02T10:07:37.102Z,100731.53
2023-01-02T10:10:12.903Z,100728.72
2023-01-02T10:12:54.895Z,100730.22
2023-01-02T10:15:29.197Z,100731.88
2023-01-02T10:18:29.910Z,100721.78
2023-01-02T10:21:15.552Z,100721.19
2023-01-02T10:24:11.100Z,100713.09
2023-01-02T10:26:44.388Z,100704.69
2023-01-02T10:29:33.745Z,100710.88
2023-01-02T10:32:19.676Z,100705.06
2023-01-02T10:35:22.314Z,100713.09
2023-01-02T10:37:49.623Z,100709.50
2023-01-02T10:40:16.830Z,100707.53
2023-01-02T10:42:44.601Z,100693.69
2023-01-02T10:45:17.413Z,100690.69
2023-01-02T10:47:44.958Z,100693.81
2023-01-02T10:50:25.594Z,100686.09
2023-01-02T10:53:09.974Z,100685.28
2023-01-02T10:55:43.677Z,100695.13
2023-01-02T10:58:32.461Z,100694.28
2023-01-02T11:01:14.307Z,100690.97
2023-01-02T11:03:41.501Z,100686.66
2023-01-02T11:06:38.999Z,100687.59
2023-01-02T11:09:22.513Z,100689.66
2023-01-02T11:12:09.050Z,100685.75
2023-01-02T11:14:38.371Z,100692.84
2023-01-02T11:17:24.989Z,100686.41
2023-01-02T11:19:56.571Z,100694.09
2023-01-02T11:22:36.081Z,100695.41
2023-01-02T11:25:43.002Z,100685.16
2023-01-02T11:28:29.497Z,100683.53
2023-01-02T11:31:14.126Z,100683.72
2023-01-02T11:33:41.686Z,100679.47
2023-01-02T11:36:11.579Z,100687.78
2023-01-02T11:38:53.895Z,100683.75
2023-01-02T11:41:56.117Z,100694.00
2023-01-02T11:44:44.324Z,100690.69
2023-01-02T11:47:13.509Z,100701.63
2023-01-02T11:49:49.292Z,100702.06
2023-01-02T11:52:30.733Z,100701.34
2023-01-02T11:55:37.344Z,100714.13
2023-01-02T11:58:36.231Z,100706.66
2023-01-02T12:01:38.172Z,100697.50
2023-01-02T12:04:05.961Z,100708.03
2023-01-02T12:07:08.927Z,100707.34
2023-01-02T12:10:08.712Z,100710.97
2023-01-02T12:12:45.990Z,100699.03
2023-01-02T12:16:11.299Z,100698.75
2023-01-02T12:19:12.205Z,100694.47
2023-01-02T12:22:07.152Z,100697.78
2023-01-02T12:25:11.310Z,100709.56
2023-01-02T12:28:12.564Z,100714.44
2023-01-02T12:31:00.915Z,100712.34
2023-01-02T12:34:07.728Z,100704.44
2023-01-02T12:36:59.862Z,100714.00
2023-01-02T12:40:02.218Z,100716.94
2023-01-02T12:43:13.131Z,100708.06
2023-01-02T12:46:20.139Z,100707.81
2023-01-02T12:49:28.056Z,100712.25
2023-01-02T12:52:34.334Z,100714.75
2023-01-02T12:55:58.021Z,100717.38
2023-01-02T12:58:52.979Z,100722.88
2023-01-02T13:01:59.849Z,100720.25
2023-01-02T13:04:54.792Z,100719.69
2023-01-02T13:07:55.898Z,100716.50
2023-01-02T13:10:28.800Z,100724.13
2023-01-02T13:13:00.596Z,100725.22
2023-01-02T13:15:36.270Z,100722.31
2023-01-02T13:18:37.565Z,100724.38
2023-01-02T13:21:44.123Z,100728.81
2023-01-02T13:24:16.620Z,100722.88
2023-01-02T13:26:44.612Z,100721.91
2023-01-02T13:29:11.633Z,100728.66
2023-01-02T13:31:49.033Z,100719.81
2023-01-02T13:34:28.781Z,100720.66
2023-01-02T13:37:19.097Z,100730.75
2023-01-02T13:39:59.486Z,100727.72
2023-01-02T13:42:55.102Z,100729.66
2023-01-02T13:45:31.115Z,100724.94
2023-01-02T13:48:07.430Z,100732.00
2023-01-02T13:50:38.788Z,100736.88
2023-01-02T13:53:11.869Z,100738.09
2023-01-02T13:55:41.880Z,100742.97
2023-01-02T13:58:15.206Z,100733.78
2023-01-02T14:00:55.727Z,100748.88
2023-01-02T14:03:23.496Z,100737.97
2023-01-02T14:06:01.403Z,100743.91
2023-01-02T14:09:04.566Z,100742.53
2023-01-02T14:12:03.056Z,100744.31
2023-01-02T14:14:46.253Z,100747.38
2023-01-02T14:18:11.824Z,100743.88
2023-01-02T14:20:44.824Z,100752.91
2023-01-02T14:23:31.690Z,100755.09
2023-01-02T14:25:59.212Z,100749.59
2023-01-02T14:28:36.091Z,100759.13
2023-01-02T14:31:32.176Z,100768.81
2023-01-02T14:34:00.320Z,100764.53
2023-01-02T14:36:47.099Z,100766.47
2023-01-02T14:39:35.468Z,100764.09
2023-01-02T14:42:44.737Z,100774.06
2023-01-02T14:45:19.735Z,100783.91
2023-01-02T14:47:58.715Z,100783.78
2023-01-02T14:50:33.352Z,100797.19
2023-01-02T14:53:20.209Z,100797.44
2023-01-02T14:55:49.440Z,100801.47
2023-01-02T14:58:41.827Z,100793.59
2023-01-02T15:01:13.025Z,100780.88
2023-01-02T15:04:25.972Z,100793.84
2023-01-02T15:07:37.528Z,100798.13
2023-01-02T15:10:22.702Z,100795.66
2023-01-02T15:13:05.248Z,100806.41
2023-01-02T15:15:53.728Z,100805.06
2023-01-02T15:18:33.674Z,100813.19
2023-01-02T15:21:10.667Z,100817.50
2023-01-02T15:23:47.633Z,100823.19
2023-01-02T15:26:34.818Z,100826.22
2023-01-02T15:29:26.946Z,100837.13
2023-01-02T15:31:59.775Z,100847.53
2023-01-02T15:34:33.522Z,100864.72
2023-01-02T15:37:07.606Z,100872.84
2023-01-02T15:39:41.091Z,100868.56
2023-01-02T15:42:31.028Z,100876.53
2023-01-02T15:45:10.596Z,100861.97
2023-01-02T15:47:51.022Z,100883.00
2023-01-02T15:50:29.148Z,100883.44
2023-01-02T15:53:07.467Z,100898.34
2023-01-02T15:55:40.635Z,100905.50
2023-01-02T15:58:16.489Z,100908.28
2023-01-02T16:00:46.296Z,100911.22
2023-01-02T16:04:01.966Z,100914.81
2023-01-02T16:06:41.256Z,100929.81
2023-01-02T16:09:34.041Z,100925.41
2023-01-02T16:12:04.144Z,100921.34
2023-01-02T16:14:46.761Z,100932.31
2023-01-02T16:17:32.736Z,100930.53
2023-01-02T16:20:07.521Z,100953.69
2023-01-02T16:22:57.729Z,100950.66
2023-01-02T16:25:35.569Z,100954.09
2023-01-02T16:28:34.626Z,100955.56
2023-01-02T16:31:08.122Z,100952.75
2023-01-02T16:33:35.503Z,100962.16
2023-01-02T16:36:05.549Z,100957.06
2023-01-02T16:38:51.715Z,100962.19
2023-01-02T16:41:35.393Z,100973.53
2023-01-02T16:44:12.308Z,100970.56
2023-01-02T16:46:45.068Z,100976.69
2023-01-02T16:49:19.415Z,100985.75
2023-01-02T16:51:53.071Z,100990.16
2023-01-02T16:54:21.091Z,100983.72
2023-01-02T16:56:49.864Z,101001.16
2023-01-02T16:59:17.079Z,101003.41
2023-01-02T17:01:44.204Z,101017.75
2023-01-02T17:04:15.212Z,101010.13
2023-01-02T17:06:42.429Z,101016.78
2023-01-02T17:09:09.623Z,101012.16
2023-01-02T17:11:59.949Z,101017.63
2023-01-02T17:14:30.415Z,101020.47
2023-01-02T17:16:58.914Z,101015.97
2023-01-02T17:19:26.377Z,101027.53
2023-01-02T17:21:53.626Z,101032.19
2023-01-02T17:24:20.910Z,101029.47
2023-01-02T17:26:48.067Z,101038.97
2023-01-02T17:29:15.322Z,101033.50
2023-01-02T17:31:42.604Z,101035.16
2023-01-02T17:34:09.772Z,101043.25
2023-01-02T17:36:37.070Z,101040.88
2023-01-02T17:39:04.336Z,101040.59
2023-01-02T17:41:31.504Z,101054.31
2023-01-02T17:44:02.559Z,101053.28
2023-01-02T17:49:21.042Z,101057.63
2023-01-02T17:51:48.211Z,101052.84
2023-01-02T17:54:15.784Z,101061.78
2023-01-02T17:56:43.218Z,101056.50
2023-01-02T17:59:10.541Z,101066.16
2023-01-02T18:01:37.880Z,101068.88
2023-01-02T18:04:05.378Z,101085.16
2023-01-02T18:06:32.906Z,101096.38
2023-01-02T18:08:59.999Z,101095.28
2023-01-02T18:11:27.304Z,101093.44
2023-01-02T18:13:56.301Z,101099.91
2023-01-02T18:16:40.443Z,101102.13
2023-01-02T18:19:22.436Z,101112.09
2023-01-02T18:21:50.784Z,101117.63
2023-01-02T18:24:30.714Z,101116.91
2023-01-02T18:27:32.548Z,101109.56
2023-01-02T18:30:25.777Z,101096.16
2023-01-02T18:33:12.456Z,101099.56
2023-01-02T18:35:58.503Z,101089.94
2023-01-02T18:38:39.598Z,101088.03
2023-01-02T18:41:28.020Z,101112.19
2023-01-02T18:44:27.507Z,101134.81
2023-01-02T18:47:14.965Z,101129.94
2023-01-02T18:49:44.025Z,101134.56
2023-01-02T18:52:10.950Z,101137.53
2023-01-02T18:54:46.737Z,101135.75
2023-01-02T18:57:21.410Z,101141.09
2023-01-02T18:59:51.807Z,101142.53
2023-01-02T19:03:03.310Z,101137.28
2023-01-02T19:05:39.656Z,101143.19
2023-01-02T19:08:22.968Z,101147.38
2023-01-02T19:10:58.753Z,101159.81
2023-01-02T19:13:35.273Z,101161.94
2023-01-02T19:16:25.734Z,101156.19
2023-01-02T19:18:56.156Z,101154.59
2023-01-02T19:21:31.899Z,101166.44
2023-01-02T19:24:04.597Z,101171.88
2023-01-02T19:26:48.279Z,101175.34
2023-01-02T19:29:33.311Z,101183.84
2023-01-02T19:32:03.082Z,101182.84
2023-01-02T19:34:55.199Z,101186.81
2023-01-02T19:37:40.763Z,101188.66
2023-01-02T19:40:19.313Z,101197.25
2023-01-02T19:42:51.687Z,101189.31
2023-01-02T19:45:26.276Z,101198.97
2023-01-02T19:47:54.316Z,101203.78
2023-01-02T19:50:26.709Z,101210.25
2023-01-02T19:52:54.378Z,101208.38
2023-01-02T19:55:21.709Z,101215.91
2023-01-02T19:57:48.879Z,101211.97
2023-01-02T20:00:19.499Z,101227.66
2023-01-02T20:02:52.369Z,101217.00
2023-01-02T20:05:22.546Z,101223.06
2023-01-02T20:07:53.112Z,101226.72
2023-01-02T20:10:22.091Z,101233.72
2023-01-02T20:12:49.955Z,101234.56
2023-01-02T20:15:25.009Z,101235.91
2023-01-02T20:17:53.958Z,101235.81
2023-01-02T20:20:26.204Z,101237.81
2023-01-02T20:22:54.929Z,101251.72
2023-01-02T20:25:26.079Z,101246.47
2023-01-02T20:27:56.774Z,101240.63
2023-01-02T20:30:25.258Z,101242.09
2023-01-02T20:32:54.301Z,101239.25
2023-01-02T20:35:22.426Z,101245.41
2023-01-02T20:37:52.003Z,101249.22
2023-01-02T20:40:19.300Z,101244.38
2023-01-02T20:42:46.476Z,101246.56
2023-01-02T20:45:13.573Z,101255.88
2023-01-02T20:47:40.708Z,101253.16
2023-01-02T20:50:09.287Z,101260.72
2023-01-02T20:52:36.534Z,101268.88
2023-01-02T20:55:03.988Z,101266.78
2023-01-02T20:57:31.191Z,101273.59
2023-01-02T20:59:58.411Z,101286.31
2023-01-02T21:02:27.851Z,101300.69
2023-01-02T21:04:55.506Z,101313.31
2023-01-02T21:07:22.670Z,101306.06
2023-01-02T21:09:49.859Z,101322.16
2023-01-02T21:12:35.738Z,101329.06
2023-01-02T21:15:02.941Z,101327.38
2023-01-02T21:17:30.254Z,101336.69
2023-01-02T21:19:57.598Z,101327.97
2023-01-02T21:22:24.848Z,101339.97
2023-01-02T21:24:52.103Z,101337.22
2023-01-02T21:27:19.274Z,101342.38
2023-01-02T21:29:46.613Z,101356.91
2023-01-02T21:32:13.798Z,101354.56
2023-01-02T21:34:40.842Z,101361.44
2023-01-02T21:37:08.139Z,101361.22
2023-01-02T21:39:35.331Z,101364.31
2023-01-02T21:42:17.724Z,101364.69
2023-01-02T21:44:47.415Z,101372.63
2023-01-02T21:47:16.841Z,101369.56
2023-01-02T21:49:44.871Z,101377.31
2023-01-02T21:52:12.250Z,101375.81
2023-01-02T21:54:39.444Z,101381.31
2023-01-02T21:57:06.703Z,101388.53
2023-01-02T21:59:34.617Z,101383.31
2023-01-02T22:02:04.023Z,101395.13
2023-01-02T22:04:31.582Z,101401.50
2023-01-02T22:09:45.965Z,101405.41
2023-01-02T22:12:13.249Z,101419.78
2023-01-02T22:14:40.380Z,101423.13
2023-01-02T22:17:10.523Z,101424.91
2023-01-02T22:19:38.679Z,101426.59
2023-01-02T22:22:06.035Z,101434.78
2023-01-02T22:24:36.588Z,101425.09
2023-01-02T22:27:09.965Z,101425.94
2023-01-02T22:30:18.580Z,101437.31
2023-01-02T22:32:24.642Z,101427.13
2023-01-02T22:34:52.644Z,101420.97
2023-01-02T22:37:22.985Z,101432.94
2023-01-02T22:39:51.044Z,101434.44
2023-01-02T22:43:04.779Z,101434.97
2023-01-02T22:45:49.706Z,101434.97
2023-01-02T22:48:26.597Z,101434.44
2023-01-02T22:50:58.420Z,101436.38
2023-01-02T22:53:36.668Z,101441.50
2023-01-02T22:56:20.418Z,101443.66
2023-01-02T22:58:49.676Z,101440.19
2023-01-02T23:01:42.343Z,101447.75
2023-01-02T23:04:20.533Z,101457.53
2023-01-02T23:07:13.997Z,101461.84
2023-01-02T23:09:38.896Z,101462.59
2023-01-02T23:12:06.380Z,101471.34
2023-01-02T23:14:33.559Z,101476.41
2023-01-02T23:17:19.360Z,101465.28
2023-01-02T23:19:46.640Z,101463.31
2023-01-02T23:22:13.728Z,101465.94
2023-01-02T23:24:40.947Z,101468.09
2023-01-02T23:27:12.105Z,101468.38
2023-01-02T23:29:40.859Z,101473.31
2023-01-02T23:32:10.392Z,101475.06
2023-01-02T23:34:37.914Z,101482.81
2023-01-02T23:37:05.368Z,101484.81
2023-01-02T23:39:34.732Z,101491.88
2023-01-02T23:42:02.666Z,101492.06
2023-01-02T23:44:29.806Z,101492.22
2023-01-02T23:46:57.371Z,101496.69
2023-01-02T23:49:24.881Z,101488.69
2023-01-02T23:51:53.808Z,101502.31
2023-01-02T23:54:21.612Z,101499.47
2023-01-02T23:56:51.241Z,101506.56
2023-01-02T23:59:24.115Z,101508.06
